createdAt,value
2018-12-29T00:01:04.544Z,73.80
2018-12-29T00:03:08.313Z,73.70
2018-12-29T00:05:12.138Z,73.50
2018-12-29T00:07:15.999Z,73.50
2018-12-29T00:09:19.854Z,73.50
2018-12-29T00:11:23.634Z,73.30
2018-12-29T00:13:27.388Z,73.60
2018-12-29T00:15:31.231Z,73.20
2018-12-29T00:17:37.944Z,73.30
2018-12-29T00:19:41.769Z,74.00
2018-12-29T00:21:47.011Z,75.10
2018-12-29T00:23:50.846Z,75.50
2018-12-29T00:25:55.234Z,75.70
2018-12-29T00:28:00.767Z,76.90
2018-12-29T00:30:05.914Z,76.40
2018-12-29T00:32:09.688Z,76.00
2018-12-29T00:34:13.485Z,75.40
2018-12-29T00:36:17.312Z,74.80
2018-12-29T00:38:21.064Z,75.00
2018-12-29T00:40:24.912Z,74.40
2018-12-29T00:42:29.735Z,74.40
2018-12-29T00:44:33.599Z,74.00
2018-12-29T00:46:37.431Z,74.00
2018-12-29T00:48:41.223Z,73.50
2018-12-29T00:50:46.362Z,74.70
2018-12-29T00:52:50.111Z,74.50
2018-12-29T00:54:53.887Z,75.30
2018-12-29T00:56:57.761Z,74.70
2018-12-29T00:59:01.635Z,73.90
2018-12-29T01:01:05.426Z,73.60
2018-12-29T01:03:09.207Z,73.20
2018-12-29T01:05:13.024Z,73.50
2018-12-29T01:07:16.761Z,73.30
2018-12-29T01:09:20.583Z,74.80
2018-12-29T01:11:29.512Z,74.30
2018-12-29T01:13:31.622Z,73.80
2018-12-29T01:15:35.323Z,73.30
2018-12-29T01:17:39.111Z,72.80
2018-12-29T01:19:43.009Z,72.30
2018-12-29T01:21:46.804Z,72.40
2018-12-29T01:23:50.540Z,72.00
2018-12-29T01:25:57.048Z,71.80
2018-12-29T01:28:00.902Z,72.90
2018-12-29T01:30:05.552Z,73.40
2018-12-29T01:32:09.363Z,73.20
2018-12-29T01:34:13.562Z,74.50
2018-12-29T01:36:17.288Z,74.40
2018-12-29T01:38:21.019Z,74.70
2018-12-29T01:40:24.925Z,74.50
2018-12-29T01:42:28.721Z,74.20
2018-12-29T01:44:32.548Z,73.60
2018-12-29T01:46:36.272Z,75.00
2018-12-29T01:48:40.027Z,74.90
2018-12-29T01:50:51.636Z,75.60
2018-12-29T01:52:55.551Z,76.00
2018-12-29T01:54:59.347Z,76.60
2018-12-29T01:57:04.811Z,78.20
2018-12-29T01:59:11.881Z,77.70
2018-12-29T02:01:15.635Z,79.60
2018-12-29T02:03:19.628Z,77.70
2018-12-29T02:05:23.365Z,77.70
2018-12-29T02:07:27.269Z,77.60
2018-12-29T02:09:32.420Z,77.90
2018-12-29T02:11:36.179Z,77.30
2018-12-29T02:13:39.926Z,76.30
2018-12-29T02:15:44.853Z,75.80
2018-12-29T02:17:48.636Z,75.80
2018-12-29T02:19:52.594Z,76.30
2018-12-29T02:21:56.363Z,77.70
2018-12-29T02:24:00.135Z,77.30
2018-12-29T02:26:04.103Z,76.60
2018-12-29T02:28:07.829Z,76.40
2018-12-29T02:30:11.690Z,76.10
2018-12-29T02:32:18.491Z,75.90
2018-12-29T02:34:23.738Z,75.80
2018-12-29T02:36:28.039Z,76.40
2018-12-29T02:39:08.293Z,77.10
2018-12-29T02:41:12.124Z,77.80
2018-12-29T02:43:15.917Z,77.00
2018-12-29T02:45:19.633Z,76.60
2018-12-29T02:47:23.530Z,76.50
2018-12-29T02:49:27.332Z,74.70
2018-12-29T02:51:31.237Z,75.10
2018-12-29T02:53:35.154Z,75.50
2018-12-29T02:55:38.966Z,76.40
2018-12-29T02:57:44.310Z,76.00
2018-12-29T02:59:48.189Z,75.30
2018-12-29T03:01:55.827Z,74.60
2018-12-29T03:03:59.798Z,76.00
2018-12-29T03:06:14.617Z,81.90
2018-12-29T03:08:18.422Z,82.80
2018-12-29T03:10:22.230Z,81.20
2018-12-29T03:15:04.251Z,78.30
2018-12-29T03:17:15.206Z,79.10
2018-12-29T03:19:26.900Z,79.00
2018-12-29T03:21:31.629Z,79.70
2018-12-29T03:23:35.401Z,78.80
2018-12-29T03:25:39.233Z,77.80
2018-12-29T03:27:46.786Z,77.30
2018-12-29T03:29:50.247Z,76.70
2018-12-29T03:31:54.134Z,76.50
2018-12-29T03:33:57.885Z,75.90
2018-12-29T03:38:28.832Z,78.30
2018-12-29T03:40:37.599Z,79.40
2018-12-29T03:42:51.236Z,78.90
2018-12-29T03:44:55.161Z,79.10
2018-12-29T03:46:58.964Z,78.80
2018-12-29T03:49:02.720Z,78.30
2018-12-29T03:51:06.891Z,77.40
2018-12-29T03:53:10.785Z,76.40
2018-12-29T03:55:14.536Z,75.30
2018-12-29T03:57:22.748Z,75.20
2018-12-29T03:59:28.007Z,78.90
2018-12-29T04:01:33.860Z,78.60
2018-12-29T04:03:37.342Z,77.50
2018-12-29T04:05:41.171Z,77.30
2018-12-29T04:07:45.696Z,78.60
2018-12-29T04:13:08.816Z,79.10
2018-12-29T04:15:20.480Z,80.80
2018-12-29T04:17:30.930Z,82.60
2018-12-29T04:19:35.173Z,86.10
2018-12-29T04:21:39.540Z,89.40
2018-12-29T04:23:52.569Z,89.40
2018-12-29T04:26:04.480Z,87.40
2018-12-29T04:30:43.848Z,83.20
2018-12-29T04:35:25.005Z,82.50
2018-12-29T04:45:09.895Z,81.90
2018-12-29T04:47:13.717Z,80.90
2018-12-29T04:49:17.568Z,79.50
2018-12-29T04:51:21.303Z,78.50
2018-12-29T04:53:25.077Z,77.40
2018-12-29T04:55:28.991Z,77.00
2018-12-29T04:57:32.703Z,76.00
2018-12-29T04:59:36.539Z,75.30
2018-12-29T05:01:40.384Z,75.00
2018-12-29T05:03:44.165Z,75.00
2018-12-29T05:05:48.105Z,74.70
2018-12-29T05:07:54.693Z,74.50
2018-12-29T05:09:57.396Z,74.20
2018-12-29T05:12:01.221Z,74.50
2018-12-29T05:14:05.124Z,74.40
2018-12-29T05:16:12.764Z,74.50
2018-12-29T05:18:14.545Z,75.20
2018-12-29T05:20:18.276Z,74.90
2018-12-29T05:22:26.286Z,75.20
2018-12-29T05:24:28.833Z,75.70
2018-12-29T05:26:32.595Z,76.60
2018-12-29T05:28:36.540Z,76.20
2018-12-29T05:30:40.422Z,75.00
2018-12-29T05:32:44.245Z,74.80
2018-12-29T05:34:48.103Z,74.60
2018-12-29T05:36:51.973Z,74.30
2018-12-29T05:38:55.731Z,74.80
2018-12-29T05:41:01.003Z,74.70
2018-12-29T05:43:06.203Z,74.10
2018-12-29T05:45:09.964Z,73.90
2018-12-29T05:47:13.804Z,74.40
2018-12-29T05:49:17.564Z,75.50
2018-12-29T05:51:21.320Z,75.20
2018-12-29T05:53:25.167Z,75.20
2018-12-29T05:55:28.992Z,74.40
2018-12-29T05:57:34.381Z,74.30
2018-12-29T05:59:38.187Z,74.60
2018-12-29T06:01:42.000Z,75.00
2018-12-29T06:03:46.234Z,75.20
2018-12-29T06:05:52.003Z,75.60
2018-12-29T06:07:55.777Z,75.40
2018-12-29T06:09:59.634Z,75.20
2018-12-29T06:12:09.008Z,74.70
2018-12-29T06:14:12.810Z,74.20
2018-12-29T06:16:18.781Z,74.60
2018-12-29T06:18:22.560Z,74.50
2018-12-29T06:20:27.872Z,75.10
2018-12-29T06:22:31.857Z,75.00
2018-12-29T06:24:35.694Z,74.80
2018-12-29T06:26:39.613Z,74.20
2018-12-29T06:28:43.412Z,74.30
2018-12-29T06:30:48.375Z,73.90
2018-12-29T06:32:52.154Z,74.90
2018-12-29T06:34:56.303Z,74.90
2018-12-29T06:37:00.079Z,74.70
2018-12-29T06:39:04.707Z,76.10
2018-12-29T06:41:08.516Z,75.80
2018-12-29T06:43:12.299Z,74.90
2018-12-29T06:45:16.085Z,75.30
2018-12-29T06:47:20.012Z,74.70
2018-12-29T06:49:25.207Z,74.10
2018-12-29T06:51:28.982Z,74.00
2018-12-29T06:53:32.723Z,75.00
2018-12-29T06:55:36.534Z,75.40
2018-12-29T06:57:42.803Z,75.40
2018-12-29T06:59:48.529Z,76.30
2018-12-29T07:01:52.076Z,75.60
2018-12-29T07:03:55.949Z,76.30
2018-12-29T07:05:59.934Z,77.10
2018-12-29T07:08:04.325Z,76.80
2018-12-29T07:10:08.142Z,76.60
2018-12-29T07:12:12.064Z,76.70
2018-12-29T07:14:15.908Z,76.10
2018-12-29T07:16:19.774Z,77.10
2018-12-29T07:18:25.116Z,76.90
2018-12-29T07:20:29.010Z,76.30
2018-12-29T07:22:32.783Z,76.20
2018-12-29T07:24:36.564Z,76.40
2018-12-29T07:26:42.105Z,75.50
2018-12-29T07:28:45.953Z,75.70
2018-12-29T07:30:51.159Z,75.70
2018-12-29T07:32:55.006Z,75.40
2018-12-29T07:34:58.761Z,74.70
2018-12-29T07:37:02.553Z,74.50
2018-12-29T07:39:06.701Z,74.10
2018-12-29T07:41:10.696Z,74.40
2018-12-29T07:43:14.543Z,74.40
2018-12-29T07:45:18.306Z,74.90
2018-12-29T07:47:23.668Z,74.80
2018-12-29T07:49:27.489Z,74.70
2018-12-29T07:51:31.340Z,75.00
2018-12-29T07:53:36.183Z,74.70
2018-12-29T07:55:42.342Z,74.50
2018-12-29T07:57:45.484Z,73.90
2018-12-29T07:59:49.286Z,74.20
2018-12-29T08:01:53.034Z,74.90
2018-12-29T08:03:56.824Z,74.10
2018-12-29T08:06:00.602Z,73.80
2018-12-29T08:08:04.335Z,73.80
2018-12-29T08:10:12.655Z,74.00
2018-12-29T08:12:13.541Z,74.10
2018-12-29T08:14:17.471Z,73.90
2018-12-29T08:16:21.323Z,73.60
2018-12-29T08:18:25.118Z,73.50
2018-12-29T08:20:28.916Z,74.10
2018-12-29T08:22:32.756Z,73.70
2018-12-29T08:24:40.894Z,74.20
2018-12-29T08:26:44.712Z,74.70
2018-12-29T08:28:51.201Z,75.00
2018-12-29T08:30:56.419Z,74.70
2018-12-29T08:33:01.875Z,74.60
2018-12-29T08:35:06.375Z,74.50
2018-12-29T08:37:10.078Z,74.60
2018-12-29T08:39:13.868Z,74.50
2018-12-29T08:41:17.851Z,74.50
2018-12-29T08:43:21.673Z,74.80
2018-12-29T08:45:25.446Z,75.50
2018-12-29T08:47:29.300Z,75.10
2018-12-29T08:49:33.081Z,74.50
2018-12-29T08:51:36.948Z,74.60
2018-12-29T08:53:40.834Z,75.00
2018-12-29T08:55:44.551Z,75.10
2018-12-29T08:57:48.454Z,75.50
2018-12-29T08:59:52.166Z,75.80
2018-12-29T09:01:55.909Z,75.00
2018-12-29T09:03:59.645Z,75.20
2018-12-29T09:06:04.891Z,76.60
2018-12-29T09:08:11.563Z,77.60
2018-12-29T09:10:15.355Z,76.80
2018-12-29T09:12:21.977Z,76.70
2018-12-29T09:14:25.843Z,76.00
2018-12-29T09:16:42.371Z,75.00
2018-12-29T09:18:37.589Z,74.80
2018-12-29T09:20:41.300Z,75.00
2018-12-29T09:22:45.262Z,74.40
2018-12-29T09:24:48.928Z,74.70
2018-12-29T09:26:55.561Z,75.10
2018-12-29T09:28:59.356Z,75.30
2018-12-29T09:31:08.157Z,75.60
2018-12-29T09:33:14.421Z,75.10
2018-12-29T09:35:18.195Z,74.60
2018-12-29T09:37:26.933Z,74.50
2018-12-29T09:39:30.228Z,75.20
2018-12-29T09:41:34.276Z,75.20
2018-12-29T09:43:38.046Z,74.30
2018-12-29T09:45:41.779Z,74.80
2018-12-29T09:47:45.643Z,75.50
2018-12-29T09:49:49.426Z,75.00
2018-12-29T09:51:53.222Z,74.40
2018-12-29T09:53:58.585Z,74.80
2018-12-29T09:56:02.381Z,75.10
2018-12-29T09:58:06.177Z,75.70
2018-12-29T10:00:10.027Z,75.90
2018-12-29T10:02:13.751Z,76.40
2018-12-29T10:04:17.632Z,75.60
2018-12-29T10:06:21.335Z,75.30
2018-12-29T10:08:25.361Z,74.90
2018-12-29T10:10:29.111Z,74.70
2018-12-29T10:12:32.932Z,74.90
2018-12-29T10:14:36.793Z,74.70
2018-12-29T10:16:43.176Z,75.10
2018-12-29T10:18:50.245Z,75.70
2018-12-29T10:20:54.030Z,75.30
2018-12-29T10:22:59.500Z,75.00
2018-12-29T10:25:03.401Z,75.60
2018-12-29T10:27:07.593Z,76.40
2018-12-29T10:29:14.211Z,75.90
2018-12-29T10:31:18.133Z,75.90
2018-12-29T10:33:21.941Z,75.30
2018-12-29T10:35:25.801Z,75.60
2018-12-29T10:37:29.805Z,75.90
2018-12-29T10:39:33.526Z,76.00
2018-12-29T10:41:37.298Z,75.80
2018-12-29T10:43:41.011Z,76.70
2018-12-29T10:45:52.107Z,77.00
2018-12-29T10:47:55.932Z,76.20
2018-12-29T10:49:59.798Z,75.90
2018-12-29T10:52:03.516Z,76.40
2018-12-29T10:54:08.396Z,76.10
2018-12-29T10:56:12.385Z,76.70
2018-12-29T10:58:19.155Z,77.10
2018-12-29T11:00:22.895Z,77.40
2018-12-29T11:02:26.764Z,76.80
2018-12-29T11:04:30.496Z,76.60
2018-12-29T11:06:34.414Z,77.10
2018-12-29T11:08:40.582Z,77.70
2018-12-29T11:10:44.444Z,78.50
2018-12-29T11:12:48.286Z,79.30
2018-12-29T11:14:52.165Z,79.20
2018-12-29T11:16:56.155Z,80.00
2018-12-29T11:18:59.987Z,81.50
2018-12-29T11:21:03.822Z,83.00
2018-12-29T11:23:13.286Z,83.70
2018-12-29T11:25:14.556Z,84.30
2018-12-29T11:27:18.403Z,84.00
2018-12-29T11:29:22.291Z,82.50
2018-12-29T11:31:26.046Z,81.30
2018-12-29T11:33:29.795Z,80.90
2018-12-29T11:35:33.614Z,82.30
2018-12-29T11:37:37.396Z,82.50
2018-12-29T11:39:41.187Z,81.90
2018-12-29T11:41:45.087Z,81.90
2018-12-29T11:43:49.084Z,80.90
2018-12-29T11:45:53.105Z,80.50
2018-12-29T11:47:57.103Z,80.10
2018-12-29T11:50:00.812Z,79.00
2018-12-29T11:52:07.083Z,79.20
2018-12-29T11:54:11.738Z,79.70
2018-12-29T11:56:15.616Z,80.00
2018-12-29T11:58:19.539Z,79.80
2018-12-29T12:00:24.861Z,78.90
2018-12-29T12:02:31.662Z,79.40
2018-12-29T12:04:35.794Z,78.70
2018-12-29T12:06:45.263Z,78.70
2018-12-29T12:08:52.450Z,79.20
2018-12-29T12:10:56.221Z,79.50
2018-12-29T12:13:00.064Z,79.90
2018-12-29T12:15:07.214Z,80.50
2018-12-29T12:17:11.401Z,80.50
2018-12-29T12:19:19.825Z,80.10
2018-12-29T12:21:23.831Z,79.50
2018-12-29T12:23:31.220Z,80.60
2018-12-29T12:25:35.590Z,80.40
2018-12-29T12:27:39.841Z,80.00
2018-12-29T12:29:44.010Z,78.60
2018-12-29T12:31:47.941Z,79.00
2018-12-29T12:33:51.960Z,78.80
2018-12-29T12:35:56.042Z,78.70
2018-12-29T12:37:59.987Z,78.10
2018-12-29T12:40:04.158Z,77.80
2018-12-29T12:42:09.576Z,77.10
2018-12-29T12:44:13.448Z,77.30
2018-12-29T12:46:17.708Z,77.80
2018-12-29T12:48:21.883Z,78.30
2018-12-29T12:50:45.215Z,78.30
2018-12-29T12:53:08.234Z,78.40
2018-12-29T12:55:32.960Z,79.00
2018-12-29T12:57:57.616Z,78.60
2018-12-29T13:00:22.290Z,79.80
2018-12-29T13:02:45.633Z,79.70
2018-12-29T13:05:01.639Z,81.60
2018-12-29T13:07:18.033Z,82.00
2018-12-29T13:09:34.361Z,82.20
2018-12-29T13:11:45.278Z,81.40
2018-12-29T13:13:49.183Z,82.70
2018-12-29T13:15:54.493Z,82.40
2018-12-29T13:17:58.474Z,82.40
2018-12-29T13:20:07.032Z,81.30
2018-12-29T13:22:08.100Z,81.40
2018-12-29T13:24:12.160Z,81.80
2018-12-29T13:26:16.105Z,81.80
2018-12-29T13:28:39.101Z,81.30
2018-12-29T13:30:50.271Z,80.50
2018-12-29T13:32:54.100Z,81.20
2018-12-29T13:34:57.979Z,83.00
2018-12-29T13:37:06.230Z,81.50
2018-12-29T13:39:10.947Z,81.40
2018-12-29T13:41:14.829Z,82.50
2018-12-29T13:43:18.658Z,83.90
2018-12-29T13:45:22.476Z,83.90
2018-12-29T13:47:26.502Z,83.20
2018-12-29T13:49:30.301Z,82.60
2018-12-29T13:51:36.309Z,81.70
2018-12-29T13:53:42.738Z,80.70
2018-12-29T13:55:50.456Z,80.40
2018-12-29T13:57:55.802Z,79.70
2018-12-29T14:00:02.661Z,79.10
2018-12-29T14:02:05.081Z,78.80
2018-12-29T14:04:08.867Z,79.10
2018-12-29T14:06:12.699Z,78.80
2018-12-29T14:08:16.615Z,78.90
2018-12-29T14:10:20.649Z,78.60
2018-12-29T14:12:26.033Z,79.00
2018-12-29T14:14:32.737Z,79.30
2018-12-29T14:16:35.463Z,80.30
2018-12-29T14:18:39.338Z,80.00
2018-12-29T14:20:43.646Z,80.20
2018-12-29T14:22:47.448Z,80.10
2018-12-29T14:24:51.299Z,80.80
2018-12-29T14:26:55.430Z,81.00
2018-12-29T14:28:59.245Z,80.70
2018-12-29T14:31:03.122Z,79.60
2018-12-29T14:33:07.463Z,80.30
2018-12-29T14:35:11.346Z,79.50
2018-12-29T14:37:21.985Z,78.70
2018-12-29T14:39:25.572Z,78.90
2018-12-29T14:41:29.749Z,79.70
2018-12-29T14:43:33.668Z,80.00
2018-12-29T14:45:40.186Z,79.30
2018-12-29T14:47:44.383Z,79.40
2018-12-29T14:49:48.174Z,79.40
2018-12-29T14:51:53.731Z,79.10
2018-12-29T14:53:57.544Z,79.10
2018-12-29T14:56:01.417Z,78.90
2018-12-29T14:58:06.947Z,79.40
2018-12-29T15:00:10.936Z,80.20
2018-12-29T15:02:14.794Z,80.50
2018-12-29T15:04:18.613Z,80.60
2018-12-29T15:06:24.849Z,80.00
2018-12-29T15:08:28.672Z,79.40
2018-12-29T15:10:32.712Z,79.10
2018-12-29T15:12:39.255Z,78.30
2018-12-29T15:14:52.496Z,77.80
2018-12-29T15:16:56.420Z,78.70
2018-12-29T15:19:00.245Z,81.00
2018-12-29T15:21:04.620Z,81.90
2018-12-29T15:23:22.722Z,81.30
2018-12-29T15:25:14.016Z,80.80
2018-12-29T15:27:18.188Z,79.40
2018-12-29T15:29:22.318Z,79.60
2018-12-29T15:31:26.201Z,79.40
2018-12-29T15:33:33.191Z,78.90
2018-12-29T15:35:37.159Z,78.60
2018-12-29T15:37:45.096Z,78.30
2018-12-29T15:39:49.031Z,77.90
2018-12-29T15:41:53.229Z,78.10
2018-12-29T15:43:57.201Z,78.10
2018-12-29T15:46:01.101Z,78.20
2018-12-29T15:48:05.428Z,77.70
2018-12-29T15:50:09.307Z,77.60
2018-12-29T15:52:13.195Z,77.20
2018-12-29T15:54:17.554Z,77.00
2018-12-29T15:56:21.360Z,77.70
2018-12-29T15:58:25.374Z,77.60
2018-12-29T16:00:39.836Z,77.30
2018-12-29T16:02:44.723Z,77.30
2018-12-29T16:04:49.256Z,77.00
2018-12-29T16:06:53.175Z,77.20
2018-12-29T16:09:00.489Z,77.30
2018-12-29T16:11:04.750Z,77.00
2018-12-29T16:13:08.580Z,77.40
2018-12-29T16:15:12.671Z,78.00
2018-12-29T16:17:17.109Z,77.40
2018-12-29T16:19:21.792Z,77.30
2018-12-29T16:21:25.637Z,77.30
2018-12-29T16:23:32.070Z,76.90
2018-12-29T16:25:36.044Z,77.50
2018-12-29T16:27:39.897Z,76.90
2018-12-29T16:29:43.840Z,77.70
2018-12-29T16:31:47.649Z,78.00
2018-12-29T16:33:53.979Z,78.10
2018-12-29T16:35:57.380Z,79.20
2018-12-29T16:38:02.952Z,79.20
2018-12-29T16:40:07.627Z,78.50
2018-12-29T16:42:11.862Z,78.50
2018-12-29T16:44:15.691Z,78.80
2018-12-29T16:46:24.951Z,78.80
2018-12-29T16:48:28.758Z,78.70
2018-12-29T16:50:32.918Z,79.00
2018-12-29T16:52:36.781Z,78.60
2018-12-29T16:54:40.802Z,78.50
2018-12-29T16:56:44.645Z,78.20
2018-12-29T16:58:48.532Z,78.50
2018-12-29T17:00:52.627Z,78.20
2018-12-29T17:02:56.445Z,77.90
2018-12-29T17:05:00.382Z,78.50
2018-12-29T17:07:04.251Z,78.20
2018-12-29T17:09:08.109Z,78.10
2018-12-29T17:11:12.112Z,78.00
2018-12-29T17:13:16.109Z,78.20
2018-12-29T17:15:21.650Z,78.40
2018-12-29T17:17:25.435Z,78.70
2018-12-29T17:19:29.277Z,78.50
2018-12-29T17:21:33.071Z,77.60
2018-12-29T17:23:37.091Z,78.10
2018-12-29T17:25:40.982Z,78.40
2018-12-29T17:27:45.061Z,78.20
2018-12-29T17:29:53.138Z,77.70
2018-12-29T17:31:54.469Z,77.50
2018-12-29T17:33:58.303Z,77.50
2018-12-29T17:36:02.175Z,78.00
2018-12-29T17:38:06.151Z,77.90
2018-12-29T17:40:09.966Z,78.10
2018-12-29T17:42:13.812Z,77.90
2018-12-29T17:44:17.646Z,77.80
2018-12-29T17:46:21.617Z,77.00
2018-12-29T17:48:25.452Z,77.80
2018-12-29T17:50:29.341Z,77.60
2018-12-29T17:52:33.186Z,77.60
2018-12-29T17:54:37.313Z,77.50
2018-12-29T17:56:41.245Z,77.60
2018-12-29T17:58:49.812Z,77.90
2018-12-29T18:00:52.634Z,77.70
2018-12-29T18:02:56.442Z,77.70
2018-12-29T18:05:00.421Z,77.40
2018-12-29T18:07:04.634Z,77.10
2018-12-29T18:09:08.800Z,77.00
2018-12-29T18:11:12.618Z,77.10
2018-12-29T18:13:19.892Z,77.80
2018-12-29T18:15:23.932Z,77.80
2018-12-29T18:17:27.744Z,77.70
2018-12-29T18:19:31.557Z,77.50
2018-12-29T18:21:35.554Z,78.00
2018-12-29T18:23:39.360Z,78.10
2018-12-29T18:25:43.268Z,78.70
2018-12-29T18:27:47.462Z,79.90
2018-12-29T18:29:51.384Z,80.40
2018-12-29T18:31:55.164Z,79.80
2018-12-29T18:33:58.975Z,79.00
2018-12-29T18:36:02.822Z,78.20
2018-12-29T18:38:06.842Z,78.00
2018-12-29T18:40:10.787Z,77.70
2018-12-29T18:42:16.094Z,77.40
2018-12-29T18:44:20.963Z,77.10
2018-12-29T18:46:25.217Z,77.40
2018-12-29T18:48:29.071Z,77.40
2018-12-29T18:50:33.217Z,77.10
2018-12-29T18:52:37.231Z,77.30
2018-12-29T18:54:41.373Z,77.00
2018-12-29T18:56:45.633Z,77.40
2018-12-29T18:58:50.365Z,77.40
2018-12-29T19:00:54.299Z,77.80
2018-12-29T19:02:58.175Z,77.80
2018-12-29T19:05:02.057Z,78.00
2018-12-29T19:07:05.952Z,77.90
2018-12-29T19:09:09.769Z,78.00
2018-12-29T19:11:15.165Z,77.70
2018-12-29T19:13:19.234Z,77.50
2018-12-29T19:15:23.354Z,77.80
2018-12-29T19:17:27.645Z,77.90
2018-12-29T19:19:31.931Z,78.40
2018-12-29T19:21:35.814Z,78.50
2018-12-29T19:23:41.591Z,78.80
2018-12-29T19:25:47.153Z,78.90
2018-12-29T19:27:51.258Z,79.20
2018-12-29T19:29:55.551Z,79.30
2018-12-29T19:31:59.497Z,79.30
2018-12-29T19:34:05.102Z,79.70
2018-12-29T19:36:09.111Z,80.10
2018-12-29T19:38:13.107Z,80.40
2018-12-29T19:40:17.212Z,80.10
2018-12-29T19:42:21.220Z,79.70
2018-12-29T19:44:25.188Z,79.30
2018-12-29T19:46:29.397Z,79.70
2018-12-29T19:48:46.409Z,81.70
2018-12-29T19:50:41.628Z,82.50
2018-12-29T19:52:45.918Z,81.40
2018-12-29T19:54:50.139Z,80.50
2018-12-29T19:56:54.825Z,80.80
2018-12-29T19:58:58.966Z,80.50
2018-12-29T20:01:04.985Z,80.80
2018-12-29T20:03:11.325Z,81.40
2018-12-29T20:05:15.401Z,81.60
2018-12-29T20:07:19.274Z,81.50
2018-12-29T20:09:23.118Z,82.00
2018-12-29T20:11:31.287Z,81.00
2018-12-29T20:13:32.522Z,80.70
2018-12-29T20:15:36.347Z,80.70
2018-12-29T20:17:42.735Z,79.80
2018-12-29T20:19:46.716Z,80.00
2018-12-29T20:21:50.526Z,79.90
2018-12-29T20:23:54.464Z,79.60
2018-12-29T20:25:59.915Z,78.80
2018-12-29T20:28:03.846Z,78.80
2018-12-29T20:30:11.497Z,78.40
2018-12-29T20:32:16.648Z,78.50
2018-12-29T20:34:23.640Z,78.30
2018-12-29T20:36:27.650Z,80.50
2018-12-29T20:38:31.457Z,80.40
2018-12-29T20:40:35.317Z,80.30
2018-12-29T20:42:39.100Z,80.00
2018-12-29T20:44:43.108Z,79.60
2018-12-29T20:46:47.040Z,78.80
2018-12-29T20:48:55.662Z,79.60
2018-12-29T20:50:59.501Z,80.10
2018-12-29T20:53:03.488Z,80.30
2018-12-29T20:55:07.313Z,80.40
2018-12-29T20:57:15.755Z,80.00
2018-12-29T20:59:20.802Z,79.70
2018-12-29T21:01:24.989Z,79.40
2018-12-29T21:03:28.790Z,80.00
2018-12-29T21:05:33.849Z,80.80
2018-12-29T21:07:37.947Z,81.80
2018-12-29T21:09:41.718Z,81.40
2018-12-29T21:11:47.231Z,81.00
2018-12-29T21:13:51.312Z,80.30
2018-12-29T21:15:55.347Z,80.80
2018-12-29T21:18:00.493Z,82.00
2018-12-29T21:20:07.258Z,82.20
2018-12-29T21:22:10.357Z,82.90
2018-12-29T21:24:14.312Z,82.00
2018-12-29T21:26:18.378Z,81.10
2018-12-29T21:28:22.257Z,80.50
2018-12-29T21:30:26.147Z,79.60
2018-12-29T21:32:30.125Z,79.70
2018-12-29T21:34:37.866Z,80.20
2018-12-29T21:36:41.658Z,80.70
2018-12-29T21:38:45.642Z,80.10
2018-12-29T21:40:49.537Z,79.80
2018-12-29T21:42:54.396Z,80.00
2018-12-29T21:44:58.561Z,80.40
2018-12-29T21:47:02.455Z,80.30
2018-12-29T21:49:09.809Z,80.90
2018-12-29T21:51:13.692Z,81.10
2018-12-29T21:53:17.631Z,81.90
2018-12-29T21:55:21.407Z,82.70
2018-12-29T21:57:25.606Z,82.80
2018-12-29T21:59:29.433Z,82.00
2018-12-29T22:01:33.627Z,82.10
2018-12-29T22:03:38.107Z,82.70
2018-12-29T22:05:41.937Z,83.40
2018-12-29T22:07:46.006Z,83.40
2018-12-29T22:09:49.882Z,82.90
2018-12-29T22:12:03.030Z,82.60
2018-12-29T22:13:59.247Z,84.80
2018-12-29T22:16:03.089Z,83.60
2018-12-29T22:18:07.109Z,84.50
2018-12-29T22:20:10.964Z,85.20
2018-12-29T22:22:14.916Z,85.00
2018-12-29T22:24:19.147Z,84.60
2018-12-29T22:26:30.606Z,84.90
2018-12-29T22:28:34.419Z,84.70
2018-12-29T22:30:38.516Z,83.80
2018-12-29T22:32:42.411Z,82.90
2018-12-29T22:34:46.458Z,82.20
2018-12-29T22:36:50.553Z,81.80
2018-12-29T22:38:54.653Z,81.90
2018-12-29T22:41:00.079Z,81.90
2018-12-29T22:43:06.809Z,83.00
2018-12-29T22:45:10.711Z,83.90
2018-12-29T22:47:14.713Z,83.40
2018-12-29T22:49:20.445Z,82.90
2018-12-29T22:51:24.311Z,82.80
2018-12-29T22:53:28.273Z,83.00
2018-12-29T22:55:32.799Z,82.20
2018-12-29T22:57:36.628Z,83.10
2018-12-29T22:59:40.463Z,83.60
2018-12-29T23:01:44.707Z,83.70
2018-12-29T23:03:49.823Z,82.80
2018-12-29T23:05:53.734Z,82.30
2018-12-29T23:07:57.841Z,82.70
2018-12-29T23:10:01.710Z,82.40
2018-12-29T23:12:06.527Z,84.20
2018-12-29T23:14:10.465Z,84.30
2018-12-29T23:16:14.305Z,83.30
2018-12-29T23:18:21.295Z,83.10
2018-12-29T23:20:25.724Z,84.50
2018-12-29T23:22:29.732Z,86.20
2018-12-29T23:24:36.494Z,87.30
2018-12-29T23:26:45.612Z,89.20
2018-12-29T23:28:52.653Z,90.20
2018-12-29T23:30:59.737Z,91.30
2018-12-29T23:33:03.585Z,90.70
2018-12-29T23:35:07.797Z,90.40
2018-12-29T23:37:11.682Z,90.20
2018-12-29T23:39:15.576Z,89.60
2018-12-29T23:41:22.114Z,89.40
2018-12-29T23:43:26.081Z,89.00
2018-12-29T23:45:30.159Z,88.20
2018-12-29T23:47:34.215Z,87.40
2018-12-29T23:52:17.502Z,90.30
2018-12-29T23:57:24.633Z,90.30
2018-12-29T23:59:29.407Z,90.70
